sensor_id;sensor_type;location;lat;lon;timestamp;temperature;humidity
11474;DHT22;5793;52.238;13.438;2024-03-29T00:01:19;7.00;99.90
11474;DHT22;5793;52.238;13.438;2024-03-29T00:03:45;7.00;99.90
11474;DHT22;5793;52.238;13.438;2024-03-29T00:06:11;7.10;99.90
11474;DHT22;5793;52.238;13.438;2024-03-29T00:08:37;7.00;99.90
11474;DHT22;5793;52.238;13.438;2024-03-29T00:11:03;7.00;99.90
11474;DHT22;5793;52.238;13.438;2024-03-29T00:13:31;7.00;99.90
11474;DHT22;5793;52.238;13.438;2024-03-29T00:15:57;7.10;99.90
11474;DHT22;5793;52.238;13.438;2024-03-29T00:18:22;7.10;99.90
11474;DHT22;5793;52.238;13.438;2024-03-29T00:20:49;7.10;99.90
11474;DHT22;5793;52.238;13.438;2024-03-29T00:23:15;7.00;99.90
11474;DHT22;5793;52.238;13.438;2024-03-29T00:25:41;6.90;99.90
11474;DHT22;5793;52.238;13.438;2024-03-29T00:28:07;6.90;99.90
11474;DHT22;5793;52.238;13.438;2024-03-29T00:30:34;6.90;99.90
11474;DHT22;5793;52.238;13.438;2024-03-29T00:33:00;6.80;99.90
11474;DHT22;5793;52.238;13.438;2024-03-29T00:35:26;6.80;99.90
11474;DHT22;5793;52.238;13.438;2024-03-29T00:37:52;6.80;99.90
11474;DHT22;5793;52.238;13.438;2024-03-29T00:40:18;6.70;99.90
11474;DHT22;5793;52.238;13.438;2024-03-29T00:42:44;6.80;99.90
11474;DHT22;5793;52.238;13.438;2024-03-29T00:45:10;6.80;99.90
11474;DHT22;5793;52.238;13.438;2024-03-29T00:47:37;6.80;99.90
11474;DHT22;5793;52.238;13.438;2024-03-29T00:50:03;6.80;99.90
11474;DHT22;5793;52.238;13.438;2024-03-29T00:52:29;6.90;99.90
11474;DHT22;5793;52.238;13.438;2024-03-29T00:54:55;6.90;99.90
11474;DHT22;5793;52.238;13.438;2024-03-29T00:57:21;7.00;99.90
11474;DHT22;5793;52.238;13.438;2024-03-29T00:59:47;7.00;99.90
11474;DHT22;5793;52.238;13.438;2024-03-29T01:02:13;6.90;99.90
11474;DHT22;5793;52.238;13.438;2024-03-29T01:04:41;6.90;99.90
11474;DHT22;5793;52.238;13.438;2024-03-29T01:07:07;6.90;99.90
11474;DHT22;5793;52.238;13.438;2024-03-29T01:09:33;6.80;99.90
11474;DHT22;5793;52.238;13.438;2024-03-29T01:11:59;6.70;99.90
11474;DHT22;5793;52.238;13.438;2024-03-29T01:14:25;6.60;99.90
11474;DHT22;5793;52.238;13.438;2024-03-29T01:16:51;6.70;99.90
11474;DHT22;5793;52.238;13.438;2024-03-29T01:19:17;6.60;99.90
11474;DHT22;5793;52.238;13.438;2024-03-29T01:21:44;6.40;99.90
11474;DHT22;5793;52.238;13.438;2024-03-29T01:24:10;6.40;99.90
11474;DHT22;5793;52.238;13.438;2024-03-29T01:26:36;6.40;99.90
11474;DHT22;5793;52.238;13.438;2024-03-29T01:29:02;6.30;99.90
11474;DHT22;5793;52.238;13.438;2024-03-29T01:31:28;6.30;99.90
11474;DHT22;5793;52.238;13.438;2024-03-29T01:33:54;6.30;99.90
11474;DHT22;5793;52.238;13.438;2024-03-29T01:36:20;6.30;99.90
11474;DHT22;5793;52.238;13.438;2024-03-29T01:38:47;6.30;99.90
11474;DHT22;5793;52.238;13.438;2024-03-29T01:41:13;6.20;99.90
11474;DHT22;5793;52.238;13.438;2024-03-29T01:43:39;6.20;99.90
11474;DHT22;5793;52.238;13.438;2024-03-29T01:46:06;6.10;99.90
11474;DHT22;5793;52.238;13.438;2024-03-29T01:48:34;6.10;99.90
11474;DHT22;5793;52.238;13.438;2024-03-29T01:51:01;6.00;99.90
11474;DHT22;5793;52.238;13.438;2024-03-29T01:53:28;6.00;99.90
11474;DHT22;5793;52.238;13.438;2024-03-29T01:55:58;5.90;99.90
11474;DHT22;5793;52.238;13.438;2024-03-29T01:58:26;6.00;99.90
11474;DHT22;5793;52.238;13.438;2024-03-29T02:00:55;5.90;99.90
11474;DHT22;5793;52.238;13.438;2024-03-29T02:03:23;5.90;99.90
11474;DHT22;5793;52.238;13.438;2024-03-29T02:05:50;5.80;99.90
11474;DHT22;5793;52.238;13.438;2024-03-29T02:08:18;5.80;99.90
11474;DHT22;5793;52.238;13.438;2024-03-29T02:10:47;5.80;99.90
11474;DHT22;5793;52.238;13.438;2024-03-29T02:13:15;5.80;99.90
11474;DHT22;5793;52.238;13.438;2024-03-29T02:15:41;5.70;99.90
11474;DHT22;5793;52.238;13.438;2024-03-29T02:18:08;5.60;99.90
11474;DHT22;5793;52.238;13.438;2024-03-29T02:20:36;5.50;99.90
11474;DHT22;5793;52.238;13.438;2024-03-29T02:23:06;5.50;99.90
11474;DHT22;5793;52.238;13.438;2024-03-29T02:25:34;5.50;99.90
11474;DHT22;5793;52.238;13.438;2024-03-29T02:28:02;5.40;99.90
11474;DHT22;5793;52.238;13.438;2024-03-29T02:30:29;5.40;99.90
11474;DHT22;5793;52.238;13.438;2024-03-29T02:32:57;5.30;99.90
11474;DHT22;5793;52.238;13.438;2024-03-29T02:35:24;5.30;99.90
11474;DHT22;5793;52.238;13.438;2024-03-29T02:37:51;5.20;99.90
11474;DHT22;5793;52.238;13.438;2024-03-29T02:40:18;5.10;99.90
11474;DHT22;5793;52.238;13.438;2024-03-29T02:42:48;5.20;99.90
11474;DHT22;5793;52.238;13.438;2024-03-29T02:45:15;5.10;99.90
11474;DHT22;5793;52.238;13.438;2024-03-29T02:47:42;5.00;99.90
11474;DHT22;5793;52.238;13.438;2024-03-29T02:50:10;4.90;99.90
11474;DHT22;5793;52.238;13.438;2024-03-29T02:52:36;4.90;99.90
11474;DHT22;5793;52.238;13.438;2024-03-29T02:55:04;4.90;99.90
11474;DHT22;5793;52.238;13.438;2024-03-29T02:57:30;4.90;99.90
11474;DHT22;5793;52.238;13.438;2024-03-29T02:59:58;5.00;99.90
11474;DHT22;5793;52.238;13.438;2024-03-29T03:02:24;4.90;99.90
11474;DHT22;5793;52.238;13.438;2024-03-29T03:04:51;4.80;99.90
11474;DHT22;5793;52.238;13.438;2024-03-29T03:07:17;4.70;99.90
11474;DHT22;5793;52.238;13.438;2024-03-29T03:10:01;4.70;99.90
11474;DHT22;5793;52.238;13.438;2024-03-29T03:12:46;4.70;99.90
11474;DHT22;5793;52.238;13.438;2024-03-29T03:15:14;4.70;99.90
11474;DHT22;5793;52.238;13.438;2024-03-29T03:17:40;4.70;99.90
11474;DHT22;5793;52.238;13.438;2024-03-29T03:20:07;4.70;99.90
11474;DHT22;5793;52.238;13.438;2024-03-29T03:22:34;4.60;99.90
11474;DHT22;5793;52.238;13.438;2024-03-29T03:25:01;4.60;99.90
11474;DHT22;5793;52.238;13.438;2024-03-29T03:27:27;4.60;99.90
11474;DHT22;5793;52.238;13.438;2024-03-29T03:29:54;4.60;99.90
11474;DHT22;5793;52.238;13.438;2024-03-29T03:32:21;4.60;99.90
11474;DHT22;5793;52.238;13.438;2024-03-29T03:34:48;4.50;99.90
11474;DHT22;5793;52.238;13.438;2024-03-29T03:37:14;4.40;99.90
11474;DHT22;5793;52.238;13.438;2024-03-29T03:39:40;4.50;99.90
11474;DHT22;5793;52.238;13.438;2024-03-29T03:42:06;4.40;99.90
11474;DHT22;5793;52.238;13.438;2024-03-29T03:44:33;4.40;99.90
11474;DHT22;5793;52.238;13.438;2024-03-29T03:46:59;4.40;99.90
11474;DHT22;5793;52.238;13.438;2024-03-29T03:49:27;4.40;99.90
11474;DHT22;5793;52.238;13.438;2024-03-29T03:51:54;4.40;99.90
11474;DHT22;5793;52.238;13.438;2024-03-29T03:54:21;4.40;99.90
11474;DHT22;5793;52.238;13.438;2024-03-29T03:56:47;4.50;99.90
11474;DHT22;5793;52.238;13.438;2024-03-29T03:59:14;4.60;99.90
11474;DHT22;5793;52.238;13.438;2024-03-29T04:01:40;4.60;99.90
11474;DHT22;5793;52.238;13.438;2024-03-29T04:04:07;4.60;99.90
11474;DHT22;5793;52.238;13.438;2024-03-29T04:06:34;4.60;99.90
11474;DHT22;5793;52.238;13.438;2024-03-29T04:09:01;4.70;99.90
11474;DHT22;5793;52.238;13.438;2024-03-29T04:11:27;4.70;99.90
11474;DHT22;5793;52.238;13.438;2024-03-29T04:13:54;4.80;99.90
11474;DHT22;5793;52.238;13.438;2024-03-29T04:16:20;4.80;99.90
11474;DHT22;5793;52.238;13.438;2024-03-29T04:18:47;4.80;99.90
11474;DHT22;5793;52.238;13.438;2024-03-29T04:21:13;4.80;99.90
11474;DHT22;5793;52.238;13.438;2024-03-29T04:23:41;4.80;99.90
11474;DHT22;5793;52.238;13.438;2024-03-29T04:26:07;4.70;99.90
11474;DHT22;5793;52.238;13.438;2024-03-29T04:28:33;4.70;99.90
11474;DHT22;5793;52.238;13.438;2024-03-29T04:31:00;4.70;99.90
11474;DHT22;5793;52.238;13.438;2024-03-29T04:33:27;4.60;99.90
11474;DHT22;5793;52.238;13.438;2024-03-29T04:35:55;4.70;99.90
11474;DHT22;5793;52.238;13.438;2024-03-29T04:38:22;4.60;99.90
11474;DHT22;5793;52.238;13.438;2024-03-29T04:40:51;4.60;99.90
11474;DHT22;5793;52.238;13.438;2024-03-29T04:43:21;4.70;99.90
11474;DHT22;5793;52.238;13.438;2024-03-29T04:45:48;4.70;99.90
11474;DHT22;5793;52.238;13.438;2024-03-29T04:48:15;4.80;99.90
11474;DHT22;5793;52.238;13.438;2024-03-29T04:50:42;4.80;99.90
11474;DHT22;5793;52.238;13.438;2024-03-29T04:53:09;4.80;99.90
11474;DHT22;5793;52.238;13.438;2024-03-29T04:55:36;4.80;99.90
11474;DHT22;5793;52.238;13.438;2024-03-29T04:58:04;4.80;99.90
11474;DHT22;5793;52.238;13.438;2024-03-29T05:00:31;4.80;99.90
11474;DHT22;5793;52.238;13.438;2024-03-29T05:02:58;4.70;99.90
11474;DHT22;5793;52.238;13.438;2024-03-29T05:05:25;4.70;99.90
11474;DHT22;5793;52.238;13.438;2024-03-29T05:07:52;4.70;99.90
11474;DHT22;5793;52.238;13.438;2024-03-29T05:10:19;4.90;99.90
11474;DHT22;5793;52.238;13.438;2024-03-29T05:12:48;5.00;99.90
11474;DHT22;5793;52.238;13.438;2024-03-29T05:15:16;5.00;99.90
11474;DHT22;5793;52.238;13.438;2024-03-29T05:17:43;5.10;99.90
11474;DHT22;5793;52.238;13.438;2024-03-29T05:20:11;5.10;99.90
11474;DHT22;5793;52.238;13.438;2024-03-29T05:22:38;5.20;99.90
11474;DHT22;5793;52.238;13.438;2024-03-29T05:25:04;5.30;99.90
11474;DHT22;5793;52.238;13.438;2024-03-29T05:27:33;5.30;99.90
11474;DHT22;5793;52.238;13.438;2024-03-29T05:30:00;5.40;99.90
11474;DHT22;5793;52.238;13.438;2024-03-29T05:32:28;5.40;99.90
11474;DHT22;5793;52.238;13.438;2024-03-29T05:34:55;5.50;99.90
11474;DHT22;5793;52.238;13.438;2024-03-29T05:37:22;5.50;99.90
11474;DHT22;5793;52.238;13.438;2024-03-29T05:39:51;5.70;99.90
11474;DHT22;5793;52.238;13.438;2024-03-29T05:42:24;5.70;99.90
11474;DHT22;5793;52.238;13.438;2024-03-29T05:44:52;5.90;99.90
11474;DHT22;5793;52.238;13.438;2024-03-29T05:47:19;5.90;99.90
11474;DHT22;5793;52.238;13.438;2024-03-29T05:49:47;6.00;99.90
11474;DHT22;5793;52.238;13.438;2024-03-29T05:52:14;6.00;99.90
11474;DHT22;5793;52.238;13.438;2024-03-29T05:54:41;6.10;99.90
11474;DHT22;5793;52.238;13.438;2024-03-29T05:57:08;6.20;99.90
11474;DHT22;5793;52.238;13.438;2024-03-29T05:59:35;6.20;99.90
11474;DHT22;5793;52.238;13.438;2024-03-29T06:02:02;6.40;99.90
11474;DHT22;5793;52.238;13.438;2024-03-29T06:04:29;6.50;99.90
11474;DHT22;5793;52.238;13.438;2024-03-29T06:06:59;6.70;99.90
11474;DHT22;5793;52.238;13.438;2024-03-29T06:09:26;6.70;99.90
11474;DHT22;5793;52.238;13.438;2024-03-29T06:11:54;6.80;99.90
11474;DHT22;5793;52.238;13.438;2024-03-29T06:14:22;7.00;99.90
11474;DHT22;5793;52.238;13.438;2024-03-29T06:17:06;7.10;99.90
11474;DHT22;5793;52.238;13.438;2024-03-29T06:19:52;7.20;99.90
11474;DHT22;5793;52.238;13.438;2024-03-29T06:22:23;7.40;99.90
11474;DHT22;5793;52.238;13.438;2024-03-29T06:24:50;7.50;99.90
11474;DHT22;5793;52.238;13.438;2024-03-29T06:27:18;7.70;99.90
11474;DHT22;5793;52.238;13.438;2024-03-29T06:29:50;7.80;99.90
11474;DHT22;5793;52.238;13.438;2024-03-29T06:32:17;7.90;99.90
11474;DHT22;5793;52.238;13.438;2024-03-29T06:34:44;8.00;99.90
11474;DHT22;5793;52.238;13.438;2024-03-29T06:37:10;8.10;99.90
11474;DHT22;5793;52.238;13.438;2024-03-29T06:39:39;8.20;99.90
11474;DHT22;5793;52.238;13.438;2024-03-29T06:42:07;8.20;99.90
11474;DHT22;5793;52.238;13.438;2024-03-29T06:44:34;8.30;99.90
11474;DHT22;5793;52.238;13.438;2024-03-29T06:47:02;8.40;99.90
11474;DHT22;5793;52.238;13.438;2024-03-29T06:49:29;8.50;99.90
11474;DHT22;5793;52.238;13.438;2024-03-29T06:51:57;8.60;99.90
11474;DHT22;5793;52.238;13.438;2024-03-29T06:54:26;8.60;99.90
11474;DHT22;5793;52.238;13.438;2024-03-29T06:56:55;8.80;99.90
11474;DHT22;5793;52.238;13.438;2024-03-29T06:59:22;8.80;99.90
11474;DHT22;5793;52.238;13.438;2024-03-29T07:01:49;8.90;99.90
11474;DHT22;5793;52.238;13.438;2024-03-29T07:04:17;8.90;99.90
11474;DHT22;5793;52.238;13.438;2024-03-29T07:06:46;9.00;99.90
11474;DHT22;5793;52.238;13.438;2024-03-29T07:09:16;9.00;99.90
11474;DHT22;5793;52.238;13.438;2024-03-29T07:11:43;9.00;99.90
11474;DHT22;5793;52.238;13.438;2024-03-29T07:14:11;9.10;99.90
11474;DHT22;5793;52.238;13.438;2024-03-29T07:16:37;9.20;99.90
11474;DHT22;5793;52.238;13.438;2024-03-29T07:19:04;9.20;99.90
11474;DHT22;5793;52.238;13.438;2024-03-29T07:21:31;9.40;99.90
11474;DHT22;5793;52.238;13.438;2024-03-29T07:23:58;9.40;99.90
11474;DHT22;5793;52.238;13.438;2024-03-29T07:26:25;9.50;99.90
11474;DHT22;5793;52.238;13.438;2024-03-29T07:28:51;9.50;99.90
11474;DHT22;5793;52.238;13.438;2024-03-29T07:31:20;9.50;99.90
11474;DHT22;5793;52.238;13.438;2024-03-29T07:33:46;9.60;99.90
11474;DHT22;5793;52.238;13.438;2024-03-29T07:36:13;9.60;99.90
11474;DHT22;5793;52.238;13.438;2024-03-29T07:38:42;9.70;99.90
11474;DHT22;5793;52.238;13.438;2024-03-29T07:41:09;9.80;99.90
11474;DHT22;5793;52.238;13.438;2024-03-29T07:43:40;9.80;99.90
11474;DHT22;5793;52.238;13.438;2024-03-29T07:46:07;9.70;99.90
11474;DHT22;5793;52.238;13.438;2024-03-29T07:48:36;9.70;99.90
11474;DHT22;5793;52.238;13.438;2024-03-29T07:51:02;9.80;99.90
11474;DHT22;5793;52.238;13.438;2024-03-29T07:53:29;9.80;99.90
11474;DHT22;5793;52.238;13.438;2024-03-29T07:55:56;9.80;99.90
11474;DHT22;5793;52.238;13.438;2024-03-29T07:58:23;9.80;99.90
11474;DHT22;5793;52.238;13.438;2024-03-29T08:00:51;9.90;99.90
11474;DHT22;5793;52.238;13.438;2024-03-29T08:03:18;9.90;99.90
11474;DHT22;5793;52.238;13.438;2024-03-29T08:05:56;9.90;99.90
11474;DHT22;5793;52.238;13.438;2024-03-29T08:08:23;9.90;99.90
11474;DHT22;5793;52.238;13.438;2024-03-29T08:10:52;10.00;99.90
11474;DHT22;5793;52.238;13.438;2024-03-29T08:13:19;10.00;99.90
11474;DHT22;5793;52.238;13.438;2024-03-29T08:15:48;9.90;99.90
11474;DHT22;5793;52.238;13.438;2024-03-29T08:18:14;9.90;99.90
11474;DHT22;5793;52.238;13.438;2024-03-29T08:20:42;10.00;99.90
11474;DHT22;5793;52.238;13.438;2024-03-29T08:23:10;10.10;99.90
11474;DHT22;5793;52.238;13.438;2024-03-29T08:25:37;10.30;99.90
11474;DHT22;5793;52.238;13.438;2024-03-29T08:28:04;10.50;99.90
11474;DHT22;5793;52.238;13.438;2024-03-29T08:30:30;10.70;99.90
11474;DHT22;5793;52.238;13.438;2024-03-29T08:33:01;10.80;99.90
11474;DHT22;5793;52.238;13.438;2024-03-29T08:35:29;10.90;99.90
11474;DHT22;5793;52.238;13.438;2024-03-29T08:37:56;11.20;99.90
11474;DHT22;5793;52.238;13.438;2024-03-29T08:40:26;11.30;99.90
11474;DHT22;5793;52.238;13.438;2024-03-29T08:42:54;11.30;99.90
11474;DHT22;5793;52.238;13.438;2024-03-29T08:45:21;11.40;99.90
11474;DHT22;5793;52.238;13.438;2024-03-29T08:47:48;11.50;99.90
11474;DHT22;5793;52.238;13.438;2024-03-29T08:50:15;11.40;99.90
11474;DHT22;5793;52.238;13.438;2024-03-29T08:52:42;11.40;99.90
11474;DHT22;5793;52.238;13.438;2024-03-29T08:55:10;11.40;99.90
11474;DHT22;5793;52.238;13.438;2024-03-29T08:57:38;11.50;99.90
11474;DHT22;5793;52.238;13.438;2024-03-29T09:00:07;11.40;99.90
11474;DHT22;5793;52.238;13.438;2024-03-29T09:02:34;11.40;99.90
11474;DHT22;5793;52.238;13.438;2024-03-29T09:05:01;11.40;99.90
11474;DHT22;5793;52.238;13.438;2024-03-29T09:07:28;11.50;99.90
11474;DHT22;5793;52.238;13.438;2024-03-29T09:09:55;11.50;99.90
11474;DHT22;5793;52.238;13.438;2024-03-29T09:12:22;11.60;99.90
11474;DHT22;5793;52.238;13.438;2024-03-29T09:14:50;11.70;99.90
11474;DHT22;5793;52.238;13.438;2024-03-29T09:17:18;11.70;99.90
11474;DHT22;5793;52.238;13.438;2024-03-29T09:19:49;12.00;99.90
11474;DHT22;5793;52.238;13.438;2024-03-29T09:22:16;12.20;99.90
11474;DHT22;5793;52.238;13.438;2024-03-29T09:24:43;12.30;99.90
11474;DHT22;5793;52.238;13.438;2024-03-29T09:27:10;12.50;99.90
11474;DHT22;5793;52.238;13.438;2024-03-29T09:29:37;12.70;99.90
11474;DHT22;5793;52.238;13.438;2024-03-29T09:32:05;12.70;99.90
11474;DHT22;5793;52.238;13.438;2024-03-29T09:34:32;12.80;99.90
11474;DHT22;5793;52.238;13.438;2024-03-29T09:36:59;13.00;99.90
11474;DHT22;5793;52.238;13.438;2024-03-29T09:39:27;13.20;99.90
11474;DHT22;5793;52.238;13.438;2024-03-29T09:41:57;13.20;99.90
11474;DHT22;5793;52.238;13.438;2024-03-29T09:44:26;13.20;99.90
11474;DHT22;5793;52.238;13.438;2024-03-29T09:46:55;13.20;99.90
11474;DHT22;5793;52.238;13.438;2024-03-29T09:49:24;13.00;99.90
11474;DHT22;5793;52.238;13.438;2024-03-29T09:51:51;12.90;99.90
11474;DHT22;5793;52.238;13.438;2024-03-29T09:54:18;13.10;99.90
11474;DHT22;5793;52.238;13.438;2024-03-29T09:56:45;13.20;99.90
11474;DHT22;5793;52.238;13.438;2024-03-29T09:59:12;13.20;99.90
11474;DHT22;5793;52.238;13.438;2024-03-29T10:01:39;13.20;99.90
11474;DHT22;5793;52.238;13.438;2024-03-29T10:04:06;13.10;99.90
11474;DHT22;5793;52.238;13.438;2024-03-29T10:06:37;13.10;99.90
11474;DHT22;5793;52.238;13.438;2024-03-29T10:09:05;12.80;99.90
11474;DHT22;5793;52.238;13.438;2024-03-29T10:11:32;12.70;99.90
11474;DHT22;5793;52.238;13.438;2024-03-29T10:13:59;12.60;99.90
11474;DHT22;5793;52.238;13.438;2024-03-29T10:16:26;12.30;99.90
11474;DHT22;5793;52.238;13.438;2024-03-29T10:18:53;12.20;99.90
11474;DHT22;5793;52.238;13.438;2024-03-29T10:21:24;12.10;99.90
11474;DHT22;5793;52.238;13.438;2024-03-29T10:23:53;12.10;99.90
11474;DHT22;5793;52.238;13.438;2024-03-29T10:26:20;12.10;99.90
11474;DHT22;5793;52.238;13.438;2024-03-29T10:28:48;11.90;99.90
11474;DHT22;5793;52.238;13.438;2024-03-29T10:31:15;11.90;99.90
11474;DHT22;5793;52.238;13.438;2024-03-29T10:33:42;11.90;99.90
11474;DHT22;5793;52.238;13.438;2024-03-29T10:36:10;11.70;99.90
11474;DHT22;5793;52.238;13.438;2024-03-29T10:38:39;11.60;99.90
11474;DHT22;5793;52.238;13.438;2024-03-29T10:41:08;11.30;99.90
11474;DHT22;5793;52.238;13.438;2024-03-29T10:43:35;11.20;99.90
11474;DHT22;5793;52.238;13.438;2024-03-29T10:46:03;11.20;99.90
11474;DHT22;5793;52.238;13.438;2024-03-29T10:48:31;11.30;99.90
11474;DHT22;5793;52.238;13.438;2024-03-29T10:50:59;11.70;99.90
11474;DHT22;5793;52.238;13.438;2024-03-29T10:53:28;12.10;99.90
11474;DHT22;5793;52.238;13.438;2024-03-29T10:55:58;12.70;99.90
11474;DHT22;5793;52.238;13.438;2024-03-29T10:58:30;13.30;99.90
11474;DHT22;5793;52.238;13.438;2024-03-29T11:00:57;14.10;99.90
11474;DHT22;5793;52.238;13.438;2024-03-29T11:03:30;14.70;99.90
11474;DHT22;5793;52.238;13.438;2024-03-29T11:06:02;14.70;99.90
11474;DHT22;5793;52.238;13.438;2024-03-29T11:08:32;14.30;99.90
11474;DHT22;5793;52.238;13.438;2024-03-29T11:11:01;14.10;99.90
11474;DHT22;5793;52.238;13.438;2024-03-29T11:13:34;13.70;99.90
11474;DHT22;5793;52.238;13.438;2024-03-29T11:16:03;13.50;99.90
11474;DHT22;5793;52.238;13.438;2024-03-29T11:18:30;13.30;99.90
11474;DHT22;5793;52.238;13.438;2024-03-29T11:20:58;13.30;99.90
11474;DHT22;5793;52.238;13.438;2024-03-29T11:23:26;13.20;99.90
11474;DHT22;5793;52.238;13.438;2024-03-29T11:25:55;13.20;99.90
11474;DHT22;5793;52.238;13.438;2024-03-29T11:28:25;13.10;99.90
11474;DHT22;5793;52.238;13.438;2024-03-29T11:30:53;13.00;99.90
11474;DHT22;5793;52.238;13.438;2024-03-29T11:33:27;13.10;99.90
11474;DHT22;5793;52.238;13.438;2024-03-29T11:35:53;13.30;99.90
11474;DHT22;5793;52.238;13.438;2024-03-29T11:38:20;13.50;99.90
11474;DHT22;5793;52.238;13.438;2024-03-29T11:40:54;13.50;99.90
11474;DHT22;5793;52.238;13.438;2024-03-29T11:43:21;13.50;99.90
11474;DHT22;5793;52.238;13.438;2024-03-29T11:45:49;13.60;99.90
11474;DHT22;5793;52.238;13.438;2024-03-29T11:48:24;13.60;99.90
11474;DHT22;5793;52.238;13.438;2024-03-29T11:50:52;13.40;99.90
11474;DHT22;5793;52.238;13.438;2024-03-29T11:53:19;13.30;99.90
11474;DHT22;5793;52.238;13.438;2024-03-29T11:55:46;13.30;99.90
11474;DHT22;5793;52.238;13.438;2024-03-29T11:58:14;13.30;99.90
11474;DHT22;5793;52.238;13.438;2024-03-29T12:00:41;13.40;99.90
11474;DHT22;5793;52.238;13.438;2024-03-29T12:03:11;13.40;99.90
11474;DHT22;5793;52.238;13.438;2024-03-29T12:05:39;13.30;99.90
11474;DHT22;5793;52.238;13.438;2024-03-29T12:08:06;13.30;99.90
11474;DHT22;5793;52.238;13.438;2024-03-29T12:10:35;13.10;99.90
11474;DHT22;5793;52.238;13.438;2024-03-29T12:13:02;13.10;99.90
11474;DHT22;5793;52.238;13.438;2024-03-29T12:15:29;13.20;99.90
11474;DHT22;5793;52.238;13.438;2024-03-29T12:17:58;13.50;99.90
11474;DHT22;5793;52.238;13.438;2024-03-29T12:20:25;13.50;99.90
11474;DHT22;5793;52.238;13.438;2024-03-29T12:22:53;13.60;99.90
11474;DHT22;5793;52.238;13.438;2024-03-29T12:25:20;13.70;99.90
11474;DHT22;5793;52.238;13.438;2024-03-29T12:27:47;13.80;99.90
11474;DHT22;5793;52.238;13.438;2024-03-29T12:30:14;13.80;99.90
11474;DHT22;5793;52.238;13.438;2024-03-29T12:32:41;13.90;99.90
11474;DHT22;5793;52.238;13.438;2024-03-29T12:35:09;14.00;99.90
11474;DHT22;5793;52.238;13.438;2024-03-29T12:37:36;14.20;99.90
11474;DHT22;5793;52.238;13.438;2024-03-29T12:40:06;14.40;99.90
11474;DHT22;5793;52.238;13.438;2024-03-29T12:42:38;14.60;99.90
11474;DHT22;5793;52.238;13.438;2024-03-29T12:45:05;14.80;99.90
11474;DHT22;5793;52.238;13.438;2024-03-29T12:47:33;15.00;99.90
11474;DHT22;5793;52.238;13.438;2024-03-29T12:50:01;15.20;99.90
11474;DHT22;5793;52.238;13.438;2024-03-29T12:52:36;15.30;99.90
11474;DHT22;5793;52.238;13.438;2024-03-29T12:55:05;15.40;99.90
11474;DHT22;5793;52.238;13.438;2024-03-29T12:57:33;15.50;99.90
11474;DHT22;5793;52.238;13.438;2024-03-29T13:00:00;15.40;99.90
11474;DHT22;5793;52.238;13.438;2024-03-29T13:02:27;15.30;99.90
11474;DHT22;5793;52.238;13.438;2024-03-29T13:04:54;15.30;99.90
11474;DHT22;5793;52.238;13.438;2024-03-29T13:07:22;15.40;99.90
11474;DHT22;5793;52.238;13.438;2024-03-29T13:09:49;15.50;99.90
11474;DHT22;5793;52.238;13.438;2024-03-29T13:12:17;15.60;99.90
11474;DHT22;5793;52.238;13.438;2024-03-29T13:14:44;15.60;99.90
11474;DHT22;5793;52.238;13.438;2024-03-29T13:17:11;15.60;99.90
11474;DHT22;5793;52.238;13.438;2024-03-29T13:19:37;15.50;99.90
11474;DHT22;5793;52.238;13.438;2024-03-29T13:22:04;15.50;99.90
11474;DHT22;5793;52.238;13.438;2024-03-29T13:24:32;15.60;99.90
11474;DHT22;5793;52.238;13.438;2024-03-29T13:26:59;15.60;99.90
11474;DHT22;5793;52.238;13.438;2024-03-29T13:29:27;15.60;99.90
11474;DHT22;5793;52.238;13.438;2024-03-29T13:31:54;15.60;99.90
11474;DHT22;5793;52.238;13.438;2024-03-29T13:34:20;15.80;99.90
11474;DHT22;5793;52.238;13.438;2024-03-29T13:36:48;15.80;99.90
11474;DHT22;5793;52.238;13.438;2024-03-29T13:39:15;16.00;99.90
11474;DHT22;5793;52.238;13.438;2024-03-29T13:41:42;16.00;99.90
11474;DHT22;5793;52.238;13.438;2024-03-29T13:44:09;15.90;99.90
11474;DHT22;5793;52.238;13.438;2024-03-29T13:46:37;15.80;99.90
11474;DHT22;5793;52.238;13.438;2024-03-29T13:49:04;15.70;99.90
11474;DHT22;5793;52.238;13.438;2024-03-29T13:51:30;15.70;99.90
11474;DHT22;5793;52.238;13.438;2024-03-29T13:53:57;15.60;99.90
11474;DHT22;5793;52.238;13.438;2024-03-29T13:56:24;15.50;99.90
11474;DHT22;5793;52.238;13.438;2024-03-29T13:58:51;15.50;99.90
11474;DHT22;5793;52.238;13.438;2024-03-29T14:01:18;15.50;99.90
11474;DHT22;5793;52.238;13.438;2024-03-29T14:03:46;15.70;99.90
11474;DHT22;5793;52.238;13.438;2024-03-29T14:06:13;15.60;99.90
11474;DHT22;5793;52.238;13.438;2024-03-29T14:08:40;15.60;99.90
11474;DHT22;5793;52.238;13.438;2024-03-29T14:11:07;15.60;99.90
11474;DHT22;5793;52.238;13.438;2024-03-29T14:13:34;15.70;99.90
11474;DHT22;5793;52.238;13.438;2024-03-29T14:16:00;15.70;99.90
11474;DHT22;5793;52.238;13.438;2024-03-29T14:18:29;15.70;99.90
11474;DHT22;5793;52.238;13.438;2024-03-29T14:20:57;15.80;99.90
11474;DHT22;5793;52.238;13.438;2024-03-29T14:23:24;15.90;99.90
11474;DHT22;5793;52.238;13.438;2024-03-29T14:25:51;16.20;99.90
11474;DHT22;5793;52.238;13.438;2024-03-29T14:28:18;16.30;99.90
11474;DHT22;5793;52.238;13.438;2024-03-29T14:30:45;16.20;99.90
11474;DHT22;5793;52.238;13.438;2024-03-29T14:33:12;16.10;99.90
11474;DHT22;5793;52.238;13.438;2024-03-29T14:35:39;16.10;99.90
11474;DHT22;5793;52.238;13.438;2024-03-29T14:38:07;16.10;99.90
11474;DHT22;5793;52.238;13.438;2024-03-29T14:40:35;16.00;99.90
11474;DHT22;5793;52.238;13.438;2024-03-29T14:43:04;16.00;99.90
11474;DHT22;5793;52.238;13.438;2024-03-29T14:45:31;16.00;99.90
11474;DHT22;5793;52.238;13.438;2024-03-29T14:47:58;15.80;99.90
11474;DHT22;5793;52.238;13.438;2024-03-29T14:50:25;15.70;99.90
11474;DHT22;5793;52.238;13.438;2024-03-29T14:52:51;15.60;99.90
11474;DHT22;5793;52.238;13.438;2024-03-29T14:55:19;15.70;99.90
11474;DHT22;5793;52.238;13.438;2024-03-29T14:57:46;15.80;99.90
11474;DHT22;5793;52.238;13.438;2024-03-29T15:00:14;15.90;99.90
11474;DHT22;5793;52.238;13.438;2024-03-29T15:02:41;15.90;99.90
11474;DHT22;5793;52.238;13.438;2024-03-29T15:05:09;15.90;99.90
11474;DHT22;5793;52.238;13.438;2024-03-29T15:07:38;15.70;99.90
11474;DHT22;5793;52.238;13.438;2024-03-29T15:10:05;15.60;99.90
11474;DHT22;5793;52.238;13.438;2024-03-29T15:12:37;15.40;99.90
11474;DHT22;5793;52.238;13.438;2024-03-29T15:15:05;15.40;99.90
11474;DHT22;5793;52.238;13.438;2024-03-29T15:17:33;15.50;99.90
11474;DHT22;5793;52.238;13.438;2024-03-29T15:20:00;15.60;99.90
11474;DHT22;5793;52.238;13.438;2024-03-29T15:22:30;15.60;99.90
11474;DHT22;5793;52.238;13.438;2024-03-29T15:24:58;15.60;99.90
11474;DHT22;5793;52.238;13.438;2024-03-29T15:27:26;15.50;99.90
11474;DHT22;5793;52.238;13.438;2024-03-29T15:30:22;15.40;99.90
11474;DHT22;5793;52.238;13.438;2024-03-29T15:32:48;15.30;99.90
11474;DHT22;5793;52.238;13.438;2024-03-29T15:35:15;15.30;99.90
11474;DHT22;5793;52.238;13.438;2024-03-29T15:37:42;15.30;99.90
11474;DHT22;5793;52.238;13.438;2024-03-29T15:40:09;15.30;99.90
11474;DHT22;5793;52.238;13.438;2024-03-29T15:42:36;15.30;99.90